Time;durP1;ratioP1;P1;durP2;ratioP2;P2;SDS_P1;SDS_P2;PMS_P1;PMS_P2;Temp;Humidity;BMP_temperature;BMP_pressure;BME280_temperature;BME280_humidity;BME280_pressure;Samples;Min_cycle;Max_cycle;Signal;HPM_P1;HPM_P2
2021/07/22 00:02:05;;;;;;;11.38;7.65;;;17.40;88.80;;;;;;4994183;28;20110;-67
2021/07/22 00:04:31;;;;;;;10.35;7.40;;;17.40;88.80;;;;;;4993821;28;20026;-68
2021/07/22 00:06:56;;;;;;;9.75;7.07;;;17.40;88.90;;;;;;4993285;28;20393;-69
2021/07/22 00:09:22;;;;;;;12.88;7.20;;;17.40;89.00;;;;;;4993029;28;20034;-68
2021/07/22 00:11:48;;;;;;;11.18;7.22;;;17.40;88.90;;;;;;4996327;28;20606;-67
2021/07/22 00:14:14;;;;;;;8.75;6.25;;;17.40;88.90;;;;;;4996302;28;20038;-67
2021/07/22 00:16:40;;;;;;;12.98;7.10;;;17.40;88.60;;;;;;5010552;28;20034;-67
2021/07/22 00:19:05;;;;;;;8.52;6.65;;;17.40;88.60;;;;;;5009826;28;20040;-68
2021/07/22 00:21:31;;;;;;;8.85;6.43;;;17.40;88.30;;;;;;4993559;28;20062;-67
2021/07/22 00:23:58;;;;;;;11.25;6.72;;;17.40;88.20;;;;;;4996144;28;20050;-67
2021/07/22 00:26:24;;;;;;;9.88;6.78;;;17.40;88.00;;;;;;4995776;28;20034;-67
2021/07/22 00:28:49;;;;;;;10.88;6.40;;;17.40;87.90;;;;;;5011771;28;20092;-68
2021/07/22 00:31:15;;;;;;;8.85;5.88;;;17.40;87.60;;;;;;5013052;28;20030;-69
2021/07/22 00:33:41;;;;;;;8.77;5.70;;;17.40;87.70;;;;;;4994596;28;20113;-67
2021/07/22 00:36:08;;;;;;;10.50;6.18;;;17.40;87.70;;;;;;4993218;28;20026;-67
2021/07/22 00:38:34;;;;;;;9.93;6.50;;;17.40;87.70;;;;;;4991851;28;20183;-68
2021/07/22 00:41:00;;;;;;;9.05;5.53;;;17.40;87.70;;;;;;4999151;28;20488;-68
2021/07/22 00:43:26;;;;;;;7.45;5.70;;;17.40;87.70;;;;;;5012867;28;20037;-68
2021/07/22 00:45:52;;;;;;;8.30;5.70;;;17.40;87.60;;;;;;5012442;28;20084;-68
2021/07/22 00:48:17;;;;;;;8.35;6.03;;;17.30;87.50;;;;;;5011362;28;20025;-68
2021/07/22 00:50:43;;;;;;;10.60;5.90;;;17.30;87.40;;;;;;5012341;28;20026;-67
2021/07/22 00:53:09;;;;;;;9.35;5.63;;;17.20;87.50;;;;;;5012471;28;20034;-67
2021/07/22 00:55:35;;;;;;;8.73;5.70;;;17.20;87.30;;;;;;5012095;28;20712;-67
2021/07/22 00:58:00;;;;;;;8.38;5.60;;;17.20;87.30;;;;;;5002818;28;20034;-67
2021/07/22 01:00:26;;;;;;;12.13;5.85;;;17.10;87.10;;;;;;4975215;28;20042;-68
2021/07/22 01:02:52;;;;;;;8.93;5.78;;;17.10;87.40;;;;;;4992588;28;20026;-66
2021/07/22 01:05:17;;;;;;;9.50;5.90;;;17.10;87.30;;;;;;4992302;28;20026;-68
2021/07/22 01:07:43;;;;;;;7.28;5.38;;;17.10;87.30;;;;;;4990997;28;20034;-67
2021/07/22 01:10:10;;;;;;;11.27;5.70;;;17.00;87.70;;;;;;4989335;28;20488;-67
2021/07/22 01:12:36;;;;;;;9.13;5.13;;;17.00;87.30;;;;;;5005549;28;20499;-67
2021/07/22 01:15:01;;;;;;;6.75;5.53;;;17.00;87.60;;;;;;5008493;28;20041;-67
2021/07/22 01:17:36;;;;;;;8.85;5.50;;;17.00;87.40;;;;;;4991194;28;20026;-67
2021/07/22 01:20:02;;;;;;;7.68;5.47;;;17.00;87.50;;;;;;5001788;28;20045;-67
2021/07/22 01:22:30;;;;;;;9.93;6.32;;;17.00;87.60;;;;;;5012116;28;20684;-67
2021/07/22 01:24:56;;;;;;;9.02;5.32;;;17.00;87.70;;;;;;5008909;28;20026;-67
2021/07/22 01:27:22;;;;;;;7.65;5.18;;;16.90;87.70;;;;;;4993309;28;20035;-67
2021/07/22 01:29:47;;;;;;;7.75;4.90;;;16.90;87.70;;;;;;5011571;28;20136;-68
2021/07/22 01:32:13;;;;;;;8.27;5.10;;;16.90;87.70;;;;;;5005362;28;20030;-67
2021/07/22 01:34:39;;;;;;;7.22;5.00;;;16.90;87.90;;;;;;4991708;28;20060;-69
2021/07/22 01:37:04;;;;;;;7.03;5.38;;;16.90;87.90;;;;;;4991154;28;20110;-67
2021/07/22 01:39:30;;;;;;;7.68;5.45;;;16.90;87.80;;;;;;4991714;28;20038;-67
2021/07/22 01:41:56;;;;;;;8.63;5.43;;;16.90;87.70;;;;;;5008062;28;20033;-67
2021/07/22 01:44:21;;;;;;;8.13;5.20;;;16.90;87.70;;;;;;5011547;28;20044;-67
2021/07/22 01:46:47;;;;;;;7.47;5.40;;;16.90;87.70;;;;;;5010785;28;20569;-68
2021/07/22 01:49:12;;;;;;;7.93;4.93;;;17.00;87.80;;;;;;5010289;28;20034;-67
2021/07/22 01:51:38;;;;;;;8.80;5.03;;;17.00;87.80;;;;;;5011571;28;20052;-67
2021/07/22 01:54:04;;;;;;;7.78;5.03;;;17.00;87.60;;;;;;5011461;28;20488;-68
2021/07/22 01:56:29;;;;;;;12.18;5.30;;;17.00;87.40;;;;;;4993754;28;20030;-69
2021/07/22 01:58:55;;;;;;;7.05;5.20;;;17.00;87.50;;;;;;4991894;28;20034;-67
2021/07/22 02:01:21;;;;;;;6.43;4.93;;;17.00;87.40;;;;;;4991758;28;20481;-67
2021/07/22 02:03:46;;;;;;;7.82;4.65;;;17.00;87.40;;;;;;4991627;28;20033;-68
2021/07/22 02:06:12;;;;;;;6.25;4.82;;;17.00;87.10;;;;;;4991791;28;20105;-68
2021/07/22 02:08:38;;;;;;;7.60;4.85;;;17.00;87.10;;;;;;4990295;28;20084;-67
2021/07/22 02:11:04;;;;;;;10.75;5.28;;;17.00;87.10;;;;;;4992849;28;20034;-68
2021/07/22 02:13:31;;;;;;;7.72;5.10;;;16.90;87.00;;;;;;4999733;28;20040;-67
2021/07/22 02:15:57;;;;;;;8.13;5.47;;;16.90;86.90;;;;;;5000040;28;20037;-67
2021/07/22 02:18:22;;;;;;;11.00;5.20;;;16.90;86.90;;;;;;5004288;28;20034;-68
2021/07/22 02:20:49;;;;;;;8.10;5.15;;;16.90;86.90;;;;;;5007239;28;20045;-69
2021/07/22 02:23:15;;;;;;;7.30;4.93;;;16.90;87.30;;;;;;5009449;28;20038;-67
2021/07/22 02:25:41;;;;;;;8.15;4.93;;;16.90;86.70;;;;;;5001156;28;20089;-68
2021/07/22 02:28:06;;;;;;;7.65;4.85;;;16.90;86.80;;;;;;4997875;28;20349;-68
2021/07/22 02:30:32;;;;;;;10.48;5.07;;;16.90;86.60;;;;;;5010865;28;20042;-67
2021/07/22 02:32:58;;;;;;;6.88;4.80;;;16.90;86.70;;;;;;4998424;28;20026;-67
2021/07/22 02:35:24;;;;;;;8.40;5.30;;;16.80;86.60;;;;;;4991453;28;20145;-68
2021/07/22 02:37:50;;;;;;;5.80;4.35;;;16.80;86.60;;;;;;4990228;28;20034;-67
2021/07/22 02:40:16;;;;;;;9.02;4.85;;;16.80;86.80;;;;;;4993471;28;20027;-67
2021/07/22 02:42:41;;;;;;;8.27;5.00;;;16.80;86.90;;;;;;5010786;28;20524;-67
2021/07/22 02:45:08;;;;;;;8.10;4.88;;;16.70;86.80;;;;;;5010677;28;20389;-69
2021/07/22 02:47:34;;;;;;;10.65;4.93;;;16.70;87.00;;;;;;5009420;28;20030;-67
2021/07/22 02:50:00;;;;;;;8.63;4.85;;;16.70;87.10;;;;;;5010759;28;20036;-67
2021/07/22 02:52:25;;;;;;;7.40;4.75;;;16.60;87.10;;;;;;5010810;28;20440;-68
2021/07/22 02:54:51;;;;;;;6.32;4.55;;;16.60;87.30;;;;;;5010618;28;20025;-68
2021/07/22 02:57:17;;;;;;;6.25;4.63;;;16.60;87.40;;;;;;4989714;28;20038;-68
2021/07/22 02:59:42;;;;;;;9.90;5.18;;;16.50;87.60;;;;;;4988554;28;20061;-67
2021/07/22 03:02:08;;;;;;;9.32;5.20;;;16.50;87.70;;;;;;4991226;28;20065;-67
2021/07/22 03:04:34;;;;;;;8.05;5.07;;;16.50;87.90;;;;;;4990982;28;20523;-67
2021/07/22 03:06:59;;;;;;;8.50;5.70;;;16.40;88.00;;;;;;4989998;28;20572;-70
2021/07/22 03:09:25;;;;;;;9.23;5.88;;;16.40;88.00;;;;;;4990843;28;20034;-66
2021/07/22 03:11:51;;;;;;;10.45;5.75;;;16.40;88.10;;;;;;4996723;28;20026;-67
2021/07/22 03:14:17;;;;;;;10.35;5.72;;;16.30;88.30;;;;;;4993216;28;20110;-68
2021/07/22 03:16:42;;;;;;;6.57;5.13;;;16.30;88.60;;;;;;4990456;28;20031;-68
2021/07/22 03:19:08;;;;;;;8.35;5.85;;;16.30;89.00;;;;;;4992485;28;20467;-69
2021/07/22 03:21:34;;;;;;;9.32;5.22;;;16.30;88.80;;;;;;5010522;28;20030;-69
2021/07/22 03:24:00;;;;;;;7.05;5.45;;;16.20;89.10;;;;;;5004521;28;20042;-67
2021/07/22 03:26:26;;;;;;;9.98;5.32;;;16.20;89.10;;;;;;4998999;28;20048;-67
2021/07/22 03:28:51;;;;;;;9.30;6.18;;;16.20;89.10;;;;;;5004567;28;20112;-67
2021/07/22 03:31:17;;;;;;;7.10;5.10;;;16.30;89.20;;;;;;5013800;28;20018;-68
2021/07/22 03:33:43;;;;;;;11.15;6.55;;;16.20;89.30;;;;;;4995336;28;20045;-68
2021/07/22 03:36:08;;;;;;;8.70;5.22;;;16.30;89.50;;;;;;4994297;28;20114;-69
2021/07/22 03:38:34;;;;;;;8.13;5.68;;;16.40;89.50;;;;;;4993044;28;20557;-67
2021/07/22 03:41:00;;;;;;;8.05;5.28;;;16.40;89.60;;;;;;5002646;28;20042;-67
2021/07/22 03:43:25;;;;;;;9.60;6.57;;;16.40;89.70;;;;;;5013827;28;20072;-67
2021/07/22 03:45:58;;;;;;;7.55;5.68;;;16.50;89.60;;;;;;5013560;28;20436;-67
2021/07/22 03:48:24;;;;;;;8.77;5.60;;;16.50;89.70;;;;;;5012559;28;20030;-67
2021/07/22 03:50:50;;;;;;;10.77;5.88;;;16.50;89.60;;;;;;5013622;28;20468;-68
2021/07/22 03:53:16;;;;;;;8.95;5.93;;;16.50;89.40;;;;;;4996210;28;20030;-67
2021/07/22 03:55:41;;;;;;;9.35;5.50;;;16.60;89.40;;;;;;5013642;28;20487;-68
2021/07/22 03:58:07;;;;;;;8.13;5.80;;;16.60;89.40;;;;;;5003203;28;20031;-68
2021/07/22 04:00:33;;;;;;;9.60;5.95;;;16.60;89.30;;;;;;5008976;28;20177;-66
2021/07/22 04:03:06;;;;;;;8.55;5.80;;;16.60;89.20;;;;;;4993727;28;20038;-67
2021/07/22 04:05:32;;;;;;;8.52;5.75;;;16.60;89.20;;;;;;4993976;28;20029;-68
2021/07/22 04:07:58;;;;;;;9.73;5.72;;;16.70;89.30;;;;;;4992830;28;20035;-69
2021/07/22 04:10:25;;;;;;;7.38;5.43;;;16.70;89.40;;;;;;4990778;28;20018;-68
2021/07/22 04:12:57;;;;;;;8.43;5.63;;;16.70;89.10;;;;;;4990326;28;20031;-68
2021/07/22 04:15:24;;;;;;;7.90;4.57;;;16.70;88.90;;;;;;4976084;28;20038;-67
2021/07/22 04:17:51;;;;;;;10.45;5.53;;;16.70;88.90;;;;;;4992300;28;20488;-68
2021/07/22 04:20:17;;;;;;;7.65;5.20;;;16.70;88.40;;;;;;4993490;28;20087;-67
2021/07/22 04:22:43;;;;;;;9.77;6.15;;;16.80;88.20;;;;;;4993450;28;20160;-67
2021/07/22 04:25:10;;;;;;;8.23;5.30;;;16.80;88.00;;;;;;4999666;28;20101;-67
2021/07/22 04:27:36;;;;;;;7.22;5.18;;;16.80;87.90;;;;;;4990452;28;20030;-68
2021/07/22 04:30:02;;;;;;;9.95;5.68;;;16.90;87.90;;;;;;4993289;28;20030;-67
2021/07/22 04:32:28;;;;;;;8.65;5.20;;;16.80;87.90;;;;;;5001876;28;20068;-67
2021/07/22 04:34:53;;;;;;;8.35;4.90;;;16.90;87.90;;;;;;5012570;28;20029;-68
2021/07/22 04:37:19;;;;;;;8.90;4.85;;;16.90;87.70;;;;;;5011818;28;20038;-67
2021/07/22 04:39:45;;;;;;;6.20;4.15;;;16.90;87.60;;;;;;5012038;28;20535;-67
2021/07/22 04:42:10;;;;;;;9.15;5.07;;;16.90;87.50;;;;;;4994325;28;20498;-68
2021/07/22 04:44:36;;;;;;;7.57;4.90;;;16.90;87.30;;;;;;4993057;28;20153;-67
2021/07/22 04:47:02;;;;;;;5.97;4.35;;;17.00;87.20;;;;;;4991919;28;20042;-68
2021/07/22 04:49:27;;;;;;;6.80;4.80;;;17.00;86.30;;;;;;4992602;28;20038;-67
2021/07/22 04:51:53;;;;;;;6.60;5.00;;;17.00;86.40;;;;;;4990063;28;20030;-67
2021/07/22 04:54:19;;;;;;;6.95;4.55;;;17.00;86.40;;;;;;4992742;28;20042;-67
2021/07/22 04:56:44;;;;;;;6.30;4.18;;;17.10;86.70;;;;;;4992194;28;20030;-68
2021/07/22 04:59:10;;;;;;;8.85;4.80;;;17.10;86.40;;;;;;5009492;28;20107;-67
2021/07/22 05:01:36;;;;;;;4.65;4.10;;;17.10;85.90;;;;;;4994749;28;20052;-67
2021/07/22 05:04:02;;;;;;;7.35;4.00;;;17.10;85.20;;;;;;5012120;28;20113;-68
2021/07/22 05:06:28;;;;;;;5.10;3.85;;;17.10;85.00;;;;;;5011297;28;20104;-67
2021/07/22 05:08:53;;;;;;;9.55;3.67;;;17.10;84.70;;;;;;5011451;28;20044;-67
2021/07/22 05:11:19;;;;;;;7.50;4.07;;;17.10;84.30;;;;;;5009445;28;20040;-68
2021/07/22 05:13:45;;;;;;;5.13;3.58;;;17.10;83.80;;;;;;5009440;28;20065;-68
2021/07/22 05:16:11;;;;;;;5.82;3.85;;;17.10;84.00;;;;;;5012278;28;20034;-67
2021/07/22 05:18:37;;;;;;;6.45;3.67;;;17.10;83.30;;;;;;5010818;28;20038;-67
2021/07/22 05:21:06;;;;;;;6.90;4.00;;;17.20;83.30;;;;;;5011951;28;20040;-66
2021/07/22 05:23:33;;;;;;;7.38;4.53;;;17.20;83.40;;;;;;5009733;28;20030;-67
2021/07/22 05:26:03;;;;;;;5.13;3.95;;;17.20;83.40;;;;;;5008218;28;20049;-68
2021/07/22 05:28:29;;;;;;;4.93;3.40;;;17.20;83.50;;;;;;5000030;28;20053;-67
2021/07/22 05:30:55;;;;;;;6.57;3.80;;;17.40;84.20;;;;;;4992294;28;20472;-68
2021/07/22 05:33:21;;;;;;;4.38;3.33;;;17.50;83.70;;;;;;5007622;28;20037;-67
2021/07/22 05:35:46;;;;;;;3.92;3.53;;;17.50;82.50;;;;;;5011769;28;20080;-67
2021/07/22 05:38:12;;;;;;;4.22;3.30;;;17.50;81.70;;;;;;5010463;28;20026;-68
2021/07/22 05:40:38;;;;;;;4.80;3.38;;;17.50;81.90;;;;;;5005901;28;20107;-67
2021/07/22 05:43:03;;;;;;;4.75;3.60;;;17.50;81.70;;;;;;4991938;28;20030;-67
2021/07/22 05:45:29;;;;;;;6.50;4.20;;;17.40;81.50;;;;;;4991917;28;20027;-67
2021/07/22 05:47:55;;;;;;;3.92;3.35;;;17.40;81.40;;;;;;4973204;28;20515;-68
2021/07/22 05:50:21;;;;;;;5.30;3.58;;;17.40;80.90;;;;;;4991987;28;20027;-67
2021/07/22 05:52:47;;;;;;;4.93;3.47;;;17.40;81.10;;;;;;4991140;28;20044;-68
2021/07/22 05:55:12;;;;;;;5.53;3.40;;;17.40;81.30;;;;;;4991744;28;20441;-68
2021/07/22 05:57:38;;;;;;;7.55;3.90;;;17.40;81.10;;;;;;4995939;28;20034;-67
2021/07/22 06:00:05;;;;;;;4.72;3.60;;;17.50;81.20;;;;;;5011120;28;20069;-68
2021/07/22 06:02:31;;;;;;;6.18;3.72;;;17.50;80.30;;;;;;5011469;28;20038;-68
2021/07/22 06:04:57;;;;;;;5.85;3.58;;;17.50;80.30;;;;;;5011015;28;20067;-67
2021/07/22 06:07:22;;;;;;;6.90;3.60;;;17.60;80.30;;;;;;5009792;28;20063;-68
2021/07/22 06:09:48;;;;;;;4.53;3.45;;;17.50;79.40;;;;;;5010533;28;20026;-67
2021/07/22 06:12:14;;;;;;;6.60;3.35;;;17.50;79.60;;;;;;5007043;28;20057;-68
2021/07/22 06:14:39;;;;;;;4.95;2.88;;;17.60;79.70;;;;;;5010896;28;20029;-68
2021/07/22 06:17:05;;;;;;;5.72;3.67;;;17.60;79.60;;;;;;5009968;28;20034;-68
2021/07/22 06:19:31;;;;;;;5.13;3.35;;;17.70;79.60;;;;;;5010850;28;20534;-67
2021/07/22 06:21:57;;;;;;;4.90;3.65;;;17.70;79.70;;;;;;4993309;28;20030;-67
2021/07/22 06:24:23;;;;;;;4.43;3.28;;;17.60;79.70;;;;;;4986285;28;20771;-68
2021/07/22 06:26:48;;;;;;;5.93;3.47;;;17.50;79.60;;;;;;5005022;28;20465;-67
2021/07/22 06:29:14;;;;;;;3.80;3.05;;;17.50;80.00;;;;;;4993615;28;20093;-68
2021/07/22 06:31:40;;;;;;;4.90;3.65;;;17.50;80.00;;;;;;4993263;28;20074;-68
2021/07/22 06:34:05;;;;;;;5.90;3.55;;;17.50;80.20;;;;;;5010964;28;20057;-67
2021/07/22 06:36:31;;;;;;;5.60;3.50;;;17.50;80.00;;;;;;5010338;28;20030;-68
2021/07/22 06:38:56;;;;;;;5.63;3.67;;;17.50;79.90;;;;;;5010135;28;20103;-68
2021/07/22 06:41:22;;;;;;;5.78;3.50;;;17.50;80.20;;;;;;4999398;28;20065;-67
2021/07/22 06:43:49;;;;;;;6.80;3.85;;;17.50;80.40;;;;;;4991307;28;20037;-69
2021/07/22 06:46:14;;;;;;;5.50;3.50;;;17.60;79.90;;;;;;4991146;28;20396;-68
2021/07/22 06:48:41;;;;;;;6.90;3.88;;;17.60;80.00;;;;;;4990319;28;20030;-67
2021/07/22 06:51:10;;;;;;;5.15;3.63;;;17.60;80.10;;;;;;4991235;28;20049;-67
2021/07/22 06:53:35;;;;;;;6.85;3.65;;;17.70;79.90;;;;;;4991316;28;20042;-67
2021/07/22 06:56:05;;;;;;;7.15;3.50;;;17.70;79.80;;;;;;4990867;28;20022;-69
2021/07/22 06:58:30;;;;;;;4.35;3.40;;;17.80;80.70;;;;;;4999509;28;20041;-68
2021/07/22 07:00:56;;;;;;;6.32;3.80;;;17.80;79.70;;;;;;5010506;28;20034;-69
2021/07/22 07:03:22;;;;;;;4.78;3.50;;;17.90;79.30;;;;;;5011491;28;20037;-66
2021/07/22 07:05:48;;;;;;;8.32;3.53;;;18.00;79.30;;;;;;5014250;28;20388;-68
2021/07/22 07:08:13;;;;;;;8.38;3.53;;;18.10;79.30;;;;;;5013028;28;20537;-67
2021/07/22 07:10:39;;;;;;;5.30;3.28;;;18.00;78.90;;;;;;5011965;28;20026;-65
2021/07/22 07:13:05;;;;;;;5.05;3.38;;;18.20;78.70;;;;;;5011158;28;20026;-69
2021/07/22 07:15:30;;;;;;;6.85;3.85;;;18.20;78.20;;;;;;5014362;28;20360;-70
2021/07/22 07:18:01;;;;;;;6.10;3.20;;;18.30;78.20;;;;;;5013045;28;20073;-67
2021/07/22 07:20:26;;;;;;;5.40;3.30;;;18.40;78.10;;;;;;5014133;28;20024;-66
2021/07/22 07:22:53;;;;;;;4.20;3.10;;;18.50;78.00;;;;;;4994079;28;20125;-68
2021/07/22 07:25:19;;;;;;;5.38;3.80;;;18.60;77.50;;;;;;5000222;28;20072;-67
2021/07/22 07:27:48;;;;;;;6.35;3.33;;;18.70;77.30;;;;;;5004052;28;20038;-66
2021/07/22 07:30:13;;;;;;;4.45;3.15;;;18.70;76.80;;;;;;5009156;28;20034;-67
2021/07/22 07:32:39;;;;;;;4.72;2.92;;;18.70;76.60;;;;;;4989443;28;20105;-67
2021/07/22 07:35:05;;;;;;;6.00;3.25;;;18.70;76.50;;;;;;5013547;28;20104;-66
2021/07/22 07:37:31;;;;;;;5.63;3.35;;;18.80;76.80;;;;;;5012347;28;20034;-66
2021/07/22 07:39:58;;;;;;;6.25;3.92;;;18.80;76.50;;;;;;5011124;28;20084;-66
2021/07/22 07:42:24;;;;;;;3.97;3.05;;;18.70;75.60;;;;;;5013885;28;20492;-66
2021/07/22 07:44:49;;;;;;;5.97;3.67;;;18.60;76.10;;;;;;5011107;28;20045;-68
2021/07/22 07:47:15;;;;;;;4.75;3.00;;;18.70;76.50;;;;;;5012048;28;20117;-68
2021/07/22 07:49:41;;;;;;;4.85;3.22;;;18.60;76.80;;;;;;5010132;28;20030;-68
2021/07/22 07:52:06;;;;;;;5.72;3.70;;;18.60;76.90;;;;;;5012829;28;20029;-68
2021/07/22 07:54:32;;;;;;;6.60;3.55;;;18.60;76.70;;;;;;5012724;28;20144;-67
2021/07/22 07:56:57;;;;;;;3.90;3.20;;;18.60;76.90;;;;;;5002327;28;20456;-67
2021/07/22 07:59:24;;;;;;;5.90;3.42;;;18.60;77.00;;;;;;4994855;28;20037;-66
2021/07/22 08:01:49;;;;;;;4.72;2.95;;;18.70;76.60;;;;;;4995020;28;20061;-66
2021/07/22 08:04:15;;;;;;;5.78;3.30;;;18.80;76.50;;;;;;5003023;28;20373;-67
2021/07/22 08:06:41;;;;;;;6.03;3.30;;;18.90;76.50;;;;;;4992326;28;20581;-68
2021/07/22 08:09:06;;;;;;;6.75;3.30;;;19.00;76.60;;;;;;4992005;28;20066;-66
2021/07/22 08:11:32;;;;;;;5.90;3.10;;;19.00;74.90;;;;;;4993125;28;20060;-66
2021/07/22 08:13:58;;;;;;;3.55;2.95;;;19.00;74.60;;;;;;5009303;28;20136;-68
2021/07/22 08:16:24;;;;;;;3.50;2.85;;;19.10;75.10;;;;;;5011105;28;20033;-66
2021/07/22 08:18:50;;;;;;;4.63;2.95;;;19.10;74.40;;;;;;5011621;28;20558;-66
2021/07/22 08:21:17;;;;;;;3.85;3.00;;;19.10;73.80;;;;;;5012764;28;20030;-66
2021/07/22 08:23:42;;;;;;;4.65;3.20;;;19.10;74.10;;;;;;5009480;28;20034;-67
2021/07/22 08:26:09;;;;;;;3.95;3.17;;;19.10;74.20;;;;;;5003075;28;20026;-67
2021/07/22 08:28:35;;;;;;;6.65;3.10;;;19.20;74.40;;;;;;5000160;28;20045;-69
2021/07/22 08:31:02;;;;;;;4.53;2.92;;;19.20;74.20;;;;;;4990629;28;20476;-68
2021/07/22 08:33:28;;;;;;;4.15;2.90;;;19.30;74.10;;;;;;4997920;28;20129;-67
2021/07/22 08:35:54;;;;;;;6.50;3.30;;;19.30;74.00;;;;;;5012722;28;20100;-67
2021/07/22 08:38:19;;;;;;;5.03;3.40;;;19.40;74.30;;;;;;5002857;28;20034;-68
2021/07/22 08:40:45;;;;;;;4.22;3.17;;;19.50;74.00;;;;;;4993081;28;20050;-67
2021/07/22 08:43:11;;;;;;;4.80;3.35;;;19.50;73.90;;;;;;4992728;28;20346;-67
2021/07/22 08:45:37;;;;;;;5.15;3.08;;;19.50;74.00;;;;;;4993038;28;20033;-68
2021/07/22 08:48:03;;;;;;;5.72;3.30;;;19.60;74.20;;;;;;5009714;28;20349;-70
2021/07/22 08:50:29;;;;;;;5.70;3.70;;;19.60;74.00;;;;;;5010272;28;20357;-68
2021/07/22 08:52:55;;;;;;;6.60;3.58;;;19.70;73.70;;;;;;5012719;28;20026;-68
2021/07/22 08:55:21;;;;;;;4.00;3.20;;;19.60;73.00;;;;;;5012227;28;20038;-67
2021/07/22 08:57:48;;;;;;;6.10;3.40;;;19.60;73.50;;;;;;5010584;28;20029;-70
2021/07/22 09:00:19;;;;;;;5.88;3.20;;;19.70;71.70;;;;;;5010483;28;20501;-68
2021/07/22 09:02:44;;;;;;;5.70;3.13;;;19.80;71.70;;;;;;5012365;28;20041;-67
2021/07/22 09:05:12;;;;;;;4.25;2.90;;;19.80;71.20;;;;;;4992779;28;20030;-68
2021/07/22 09:07:38;;;;;;;4.38;3.13;;;19.80;72.10;;;;;;4991506;28;20438;-70
2021/07/22 09:10:03;;;;;;;3.67;2.65;;;19.90;71.50;;;;;;4992837;28;20034;-67
2021/07/22 09:12:35;;;;;;;3.53;2.67;;;20.00;71.80;;;;;;4992489;28;20042;-67
2021/07/22 09:15:02;;;;;;;4.57;2.97;;;20.10;71.40;;;;;;4989678;28;20440;-67
2021/07/22 09:17:27;;;;;;;5.05;3.38;;;20.00;70.90;;;;;;4991378;28;20082;-66
2021/07/22 09:19:53;;;;;;;5.55;3.20;;;20.10;71.70;;;;;;4992345;28;20597;-67
2021/07/22 09:22:33;;;;;;;4.20;3.15;;;20.10;70.90;;;;;;4992206;28;20038;-67
2021/07/22 09:24:59;;;;;;;4.68;2.83;;;20.10;71.40;;;;;;4997410;28;20480;-67
2021/07/22 09:27:39;;;;;;;5.65;2.67;;;20.20;71.20;;;;;;5007919;28;20092;-67
2021/07/22 09:30:24;;;;;;;4.18;3.00;;;20.20;70.70;;;;;;4997542;28;20388;-68
2021/07/22 09:32:49;;;;;;;4.80;3.15;;;20.30;70.60;;;;;;4995734;28;20487;-67
2021/07/22 09:35:20;;;;;;;4.90;3.08;;;20.20;70.20;;;;;;5010527;28;20100;-67
2021/07/22 09:37:56;;;;;;;6.15;3.08;;;20.10;69.90;;;;;;5006183;28;20038;-66
2021/07/22 09:40:25;;;;;;;4.57;3.53;;;20.20;70.40;;;;;;4992130;28;20042;-67
2021/07/22 09:42:54;;;;;;;4.65;3.80;;;20.20;70.50;;;;;;4991420;28;20039;-67
2021/07/22 09:45:25;;;;;;;5.40;3.33;;;20.20;70.70;;;;;;4991822;28;20026;-68
2021/07/22 09:47:54;;;;;;;5.25;3.28;;;20.20;71.40;;;;;;4991170;28;20054;-69
2021/07/22 09:50:22;;;;;;;7.05;3.28;;;20.20;71.60;;;;;;4989209;28;20045;-67
2021/07/22 09:53:04;;;;;;;3.85;3.08;;;20.30;71.60;;;;;;4992074;28;20026;-67
2021/07/22 09:55:32;;;;;;;5.20;3.45;;;20.40;71.30;;;;;;4991717;28;20064;-67
2021/07/22 09:58:06;;;;;;;3.63;2.88;;;20.30;71.00;;;;;;4988154;28;20034;-67
2021/07/22 10:00:33;;;;;;;5.78;3.47;;;20.40;71.30;;;;;;4991568;28;20109;-68
2021/07/22 10:03:00;;;;;;;4.47;3.15;;;20.30;70.00;;;;;;4993260;28;20030;-67
2021/07/22 10:05:38;;;;;;;4.05;3.30;;;20.30;70.20;;;;;;5011301;28;20061;-67
2021/07/22 10:08:05;;;;;;;4.38;3.00;;;20.40;70.20;;;;;;5010248;28;20407;-68
2021/07/22 10:10:31;;;;;;;6.80;3.38;;;20.40;70.00;;;;;;5011212;28;20026;-67
2021/07/22 10:12:59;;;;;;;4.50;3.15;;;20.40;69.50;;;;;;5011271;28;20079;-67
2021/07/22 10:15:29;;;;;;;7.85;3.47;;;20.40;68.90;;;;;;5008380;28;20448;-66
2021/07/22 10:17:57;;;;;;;7.85;3.67;;;20.40;68.50;;;;;;5009883;28;20061;-68
2021/07/22 10:20:32;;;;;;;3.92;2.92;;;20.60;68.80;;;;;;5010795;28;20038;-67
2021/07/22 10:22:59;;;;;;;5.90;3.00;;;20.70;68.40;;;;;;5010934;28;20527;-68
2021/07/22 10:25:25;;;;;;;5.35;3.10;;;20.70;68.70;;;;;;5000427;28;20034;-68
2021/07/22 10:27:55;;;;;;;4.85;3.30;;;20.90;68.80;;;;;;4995605;28;20357;-68
2021/07/22 10:30:22;;;;;;;5.20;3.55;;;20.90;66.90;;;;;;5007927;28;20032;-68
2021/07/22 10:32:55;;;;;;;6.05;3.45;;;20.80;67.40;;;;;;4995074;28;20089;-68
2021/07/22 10:35:24;;;;;;;3.90;3.22;;;20.80;67.40;;;;;;5010603;28;20049;-67
2021/07/22 10:38:30;;;;;;;4.32;3.00;;;20.70;67.50;;;;;;5004930;28;20058;-67
2021/07/22 10:41:01;;;;;;;5.40;3.05;;;20.70;67.00;;;;;;4989348;28;20140;-66
2021/07/22 10:43:38;;;;;;;4.00;3.22;;;20.70;67.70;;;;;;4995233;28;20034;-67
2021/07/22 10:46:11;;;;;;;3.53;2.90;;;20.80;68.20;;;;;;4997476;28;20113;-67
2021/07/22 10:48:38;;;;;;;4.38;3.10;;;20.90;68.00;;;;;;5011731;28;20496;-67
2021/07/22 10:51:06;;;;;;;4.57;2.75;;;21.10;67.30;;;;;;5014776;28;20084;-68
2021/07/22 10:53:47;;;;;;;189.27;121.38;;;21.20;67.20;;;;;;4995476;28;20049;-67
2021/07/22 10:56:17;;;;;;;;;;;21.30;66.50;;;;;;5014810;28;20041;-68
2021/07/22 10:58:43;;;;;;;61.30;51.85;;;21.20;65.30;;;;;;5011254;28;20391;-67
2021/07/22 11:01:09;;;;;;;5.53;4.10;;;21.30;66.20;;;;;;5014630;28;20120;-67
2021/07/22 11:03:35;;;;;;;5.05;2.60;;;21.30;64.90;;;;;;5008138;28;20041;-67
2021/07/22 11:06:02;;;;;;;5.35;3.28;;;21.30;65.00;;;;;;4994252;28;20065;-67
2021/07/22 11:08:29;;;;;;;3.38;2.65;;;21.20;64.00;;;;;;4994390;28;20101;-67
2021/07/22 11:10:57;;;;;;;4.43;2.88;;;21.30;64.50;;;;;;4994659;28;20030;-66
2021/07/22 11:13:35;;;;;;;3.80;2.65;;;21.40;63.50;;;;;;4994904;28;20084;-68
2021/07/22 11:16:06;;;;;;;3.42;2.70;;;21.60;64.30;;;;;;4993067;28;20033;-67
2021/07/22 11:18:43;;;;;;;8.00;3.00;;;21.70;64.60;;;;;;4993938;28;20026;-67
2021/07/22 11:21:11;;;;;;;4.03;2.40;;;21.60;64.00;;;;;;4994751;28;20038;-67
2021/07/22 11:23:39;;;;;;;4.03;2.92;;;21.50;65.00;;;;;;4994535;28;20026;-67
2021/07/22 11:26:05;;;;;;;4.70;2.70;;;21.40;63.80;;;;;;4993769;28;20365;-67
2021/07/22 11:28:30;;;;;;;7.93;2.88;;;21.60;67.40;;;;;;4976432;28;20040;-67
2021/07/22 11:30:59;;;;;;;4.30;2.00;;;22.00;62.40;;;;;;5000706;28;20114;-68
2021/07/22 11:33:29;;;;;;;4.40;1.92;;;22.60;63.20;;;;;;5010243;28;20034;-68
2021/07/22 11:36:00;;;;;;;3.90;1.90;;;23.80;61.10;;;;;;4993670;28;20032;-69
2021/07/22 11:38:26;;;;;;;4.85;2.00;;;24.50;57.40;;;;;;5003424;28;20030;-68
2021/07/22 11:40:53;;;;;;;3.90;2.40;;;25.10;57.10;;;;;;5011181;28;20057;-68
2021/07/22 11:43:31;;;;;;;4.03;2.40;;;25.00;56.70;;;;;;5039742;23;20052;-69
2021/07/22 11:45:57;;;;;;;4.68;2.22;;;24.30;54.80;;;;;;5024618;28;20025;-69
2021/07/22 11:48:26;;;;;;;3.63;2.17;;;23.80;55.80;;;;;;5025585;28;20048;-69
2021/07/22 11:51:05;;;;;;;3.95;2.20;;;23.90;57.70;;;;;;5016640;28;20022;-70
2021/07/22 11:53:31;;;;;;;3.35;2.15;;;25.20;54.90;;;;;;5014678;28;20033;-69
2021/07/22 11:56:00;;;;;;;4.78;2.47;;;25.80;52.60;;;;;;5031586;28;20029;-70
2021/07/22 11:58:26;;;;;;;4.13;2.28;;;26.80;50.70;;;;;;5031728;28;20033;-69
2021/07/22 12:00:53;;;;;;;3.75;2.10;;;28.90;48.00;;;;;;5032809;28;20076;-70
2021/07/22 12:03:23;;;;;;;4.43;2.28;;;30.30;43.20;;;;;;5019174;28;20067;-70
2021/07/22 12:05:49;;;;;;;4.25;1.70;;;31.70;39.70;;;;;;5012592;28;20038;-70
2021/07/22 12:08:16;;;;;;;3.60;2.05;;;32.30;39.80;;;;;;5012430;28;20034;-70
2021/07/22 12:10:42;;;;;;;4.82;1.70;;;33.00;38.60;;;;;;5011770;28;20033;-70
2021/07/22 12:13:08;;;;;;;3.00;1.77;;;33.10;35.40;;;;;;5012608;28;20080;-70
2021/07/22 12:15:36;;;;;;;3.13;1.70;;;32.90;34.30;;;;;;5012622;28;20495;-70
2021/07/22 12:18:03;;;;;;;2.97;1.73;;;32.40;37.30;;;;;;5012336;28;20036;-70
2021/07/22 12:20:29;;;;;;;3.28;1.90;;;32.10;36.20;;;;;;5026800;28;20033;-69
2021/07/22 12:22:55;;;;;;;2.92;1.80;;;32.40;37.40;;;;;;5032356;28;20029;-70
2021/07/22 12:25:21;;;;;;;3.83;1.90;;;32.20;36.80;;;;;;5020050;28;20032;-70
2021/07/22 12:27:49;;;;;;;2.90;1.65;;;31.40;38.00;;;;;;5026758;28;20112;-70
2021/07/22 12:30:18;;;;;;;4.57;1.80;;;30.90;38.60;;;;;;5018826;28;20055;-70
2021/07/22 12:33:01;;;;;;;3.38;1.80;;;29.50;39.10;;;;;;5016336;28;20452;-70
2021/07/22 12:35:41;;;;;;;3.55;1.40;;;28.50;42.00;;;;;;4996462;28;20031;-70
2021/07/22 12:38:08;;;;;;;2.83;1.70;;;28.40;43.50;;;;;;5009417;28;20491;-70
2021/07/22 12:40:55;;;;;;;2.50;1.60;;;28.50;43.40;;;;;;5031431;28;20049;-69
2021/07/22 12:43:22;;;;;;;2.63;1.50;;;28.80;42.90;;;;;;5031828;28;20034;-70
2021/07/22 12:45:52;;;;;;;4.13;1.77;;;28.90;43.30;;;;;;5031467;28;20387;-69